createdAt,value
2023-09-08T00:03:58.258Z,97259.53
2023-09-08T00:09:05.153Z,97251.13
2023-09-08T00:11:31.708Z,97254.72
2023-09-08T00:13:58.203Z,97250.31
2023-09-08T00:16:24.810Z,97249.84
2023-09-08T00:18:51.329Z,97241.56
2023-09-08T00:21:17.933Z,97246.44
2023-09-08T00:23:44.502Z,97248.69
2023-09-08T00:26:11.040Z,97253.09
2023-09-08T00:28:37.642Z,97259.72
2023-09-08T00:31:04.186Z,97259.13
2023-09-08T00:33:34.381Z,97255.22
2023-09-08T00:36:01.070Z,97264.03
2023-09-08T00:38:27.828Z,97258.53
2023-09-08T00:40:57.132Z,97265.16
2023-09-08T00:43:23.792Z,97256.47
2023-09-08T00:48:30.760Z,97265.34
2023-09-08T00:50:57.451Z,97258.50
2023-09-08T00:53:24.102Z,97262.38
2023-09-08T00:55:50.646Z,97261.56
2023-09-08T00:58:17.230Z,97268.19
2023-09-08T01:00:43.759Z,97266.28
2023-09-08T01:03:14.968Z,97269.84
2023-09-08T01:05:43.728Z,97261.56
2023-09-08T01:08:10.333Z,97267.69
2023-09-08T01:10:36.877Z,97263.38
2023-09-08T01:13:03.408Z,97259.63
2023-09-08T01:15:30.025Z,97260.44
2023-09-08T01:17:56.669Z,97257.66
2023-09-08T01:20:23.212Z,97253.28
2023-09-08T01:22:49.824Z,97256.34
2023-09-08T01:25:16.376Z,97263.50
2023-09-08T01:27:42.926Z,97260.72
2023-09-08T01:30:09.418Z,97269.31
2023-09-08T01:32:37.125Z,97262.16
2023-09-08T01:35:03.693Z,97262.16
2023-09-08T01:37:30.238Z,97258.28
2023-09-08T01:39:56.799Z,97270.13
2023-09-08T01:42:23.390Z,97273.50
2023-09-08T01:44:50.068Z,97264.69
2023-09-08T01:47:16.688Z,97264.81
2023-09-08T01:49:43.310Z,97260.94
2023-09-08T01:52:09.902Z,97257.03
2023-09-08T01:54:36.493Z,97260.94
2023-09-08T01:57:03.099Z,97257.03
2023-09-08T01:59:29.694Z,97254.56
2023-09-08T02:01:56.267Z,97260.41
2023-09-08T02:04:22.837Z,97255.19
2023-09-08T02:06:49.446Z,97254.38
2023-09-08T02:09:15.921Z,97252.72
2023-09-08T02:11:42.508Z,97260.69
2023-09-08T02:14:09.035Z,97254.47
2023-09-08T02:16:35.603Z,97261.94
2023-09-08T02:19:02.242Z,97255.56
2023-09-08T02:21:28.823Z,97259.75
2023-09-08T02:23:55.569Z,97257.25
2023-09-08T02:26:22.132Z,97257.06
2023-09-08T02:28:48.617Z,97258.19
2023-09-08T02:31:15.144Z,97256.56
2023-09-08T02:36:22.035Z,97266.25
2023-09-08T02:38:48.627Z,97261.91
2023-09-08T02:41:15.511Z,97261.63
2023-09-08T02:43:41.977Z,97258.59
2023-09-08T02:46:08.659Z,97258.06
2023-09-08T02:48:38.273Z,97256.41
2023-09-08T02:51:06.125Z,97260.31
2023-09-08T02:53:32.655Z,97264.47
2023-09-08T02:55:59.209Z,97264.78
2023-09-08T02:58:25.757Z,97266.13
2023-09-08T03:00:52.483Z,97267.22
2023-09-08T03:05:59.282Z,97272.22
2023-09-08T03:08:25.786Z,97269.75
2023-09-08T03:10:52.343Z,97263.75
2023-09-08T03:13:18.874Z,97265.97
2023-09-08T03:15:48.465Z,97264.66
2023-09-08T03:18:16.984Z,97272.69
2023-09-08T03:20:43.713Z,97270.78
2023-09-08T03:23:10.253Z,97273.22
2023-09-08T03:25:36.770Z,97271.88
2023-09-08T03:28:04.549Z,97277.41
2023-09-08T03:30:31.060Z,97274.34
2023-09-08T03:32:57.752Z,97272.38
2023-09-08T03:35:24.349Z,97267.47
2023-09-08T03:37:50.902Z,97271.34
2023-09-08T03:40:22.597Z,97274.19
2023-09-08T03:42:49.173Z,97271.75
2023-09-08T03:45:15.699Z,97264.59
2023-09-08T03:47:42.345Z,97275.31
2023-09-08T03:50:29.076Z,97278.38
2023-09-08T03:52:55.585Z,97274.63
2023-09-08T03:55:22.112Z,97282.91
2023-09-08T03:57:49.883Z,97273.03
2023-09-08T04:00:16.558Z,97283.75
2023-09-08T04:02:43.179Z,97277.41
2023-09-08T04:05:09.791Z,97273.53
2023-09-08T04:07:36.397Z,97279.66
2023-09-08T04:10:03.209Z,97279.13
2023-09-08T04:12:29.807Z,97278.91
2023-09-08T04:14:57.024Z,97282.75
2023-09-08T04:17:23.717Z,97284.16
2023-09-08T04:19:50.236Z,97282.53
2023-09-08T04:22:16.801Z,97283.63
2023-09-08T04:24:43.324Z,97283.63
2023-09-08T04:27:09.935Z,97279.53
2023-09-08T04:29:42.981Z,97285.88
2023-09-08T04:32:10.473Z,97287.59
2023-09-08T04:34:37.037Z,97293.69
2023-09-08T04:37:04.854Z,97290.09
2023-09-08T04:39:31.461Z,97295.31
2023-09-08T04:41:58.198Z,97302.47
2023-09-08T04:44:24.815Z,97299.19
2023-09-08T04:46:51.355Z,97302.53
2023-09-08T04:49:17.883Z,97300.91
2023-09-08T04:51:44.415Z,97307.53
2023-09-08T04:54:10.951Z,97310.28
2023-09-08T04:56:37.560Z,97307.00
2023-09-08T04:59:04.772Z,97310.03
2023-09-08T05:01:31.383Z,97311.97
2023-09-08T05:03:58.114Z,97311.16
2023-09-08T05:06:24.820Z,97306.78
2023-09-08T05:08:51.427Z,97303.50
2023-09-08T05:11:19.800Z,97308.47
2023-09-08T05:13:46.317Z,97311.81
2023-09-08T05:16:12.958Z,97311.31
2023-09-08T05:18:39.618Z,97305.28
2023-09-08T05:21:06.216Z,97309.97
2023-09-08T05:23:40.020Z,97310.47
2023-09-08T05:26:06.567Z,97307.50
2023-09-08T05:28:34.336Z,97313.31
2023-09-08T05:31:02.373Z,97322.38
2023-09-08T05:33:28.974Z,97322.88
2023-09-08T05:35:56.639Z,97323.19
2023-09-08T05:38:23.610Z,97328.41
2023-09-08T05:40:52.131Z,97328.69
2023-09-08T05:43:18.786Z,97331.16
2023-09-08T05:45:45.299Z,97329.75
2023-09-08T05:48:14.284Z,97331.41
2023-09-08T05:50:40.738Z,97336.91
2023-09-08T05:53:07.171Z,97328.34
2023-09-08T05:55:33.628Z,97322.84
2023-09-08T05:58:00.117Z,97324.78
2023-09-08T06:00:26.984Z,97327.25
2023-09-08T06:02:53.558Z,97331.91
2023-09-08T06:05:20.279Z,97325.59
2023-09-08T06:08:01.155Z,97331.91
2023-09-08T06:10:33.187Z,97342.91
2023-09-08T06:13:00.238Z,97339.34
2023-09-08T06:15:26.709Z,97345.97
2023-09-08T06:17:53.251Z,97349.00
2023-09-08T06:20:19.943Z,97349.84
2023-09-08T06:22:55.320Z,97353.41
2023-09-08T06:25:21.908Z,97358.91
2023-09-08T06:27:48.337Z,97358.91
2023-09-08T06:30:14.779Z,97354.22
2023-09-08T06:32:41.326Z,97351.16
2023-09-08T06:35:07.765Z,97355.06
2023-09-08T06:37:34.187Z,97353.41
2023-09-08T06:40:00.715Z,97350.66
2023-09-08T06:42:27.172Z,97349.25
2023-09-08T06:44:53.699Z,97355.38
2023-09-08T06:47:20.235Z,97361.13
2023-09-08T06:49:46.728Z,97358.38
2023-09-08T06:52:13.451Z,97363.63
2023-09-08T06:54:40.288Z,97361.69
2023-09-08T06:57:06.829Z,97363.31
2023-09-08T07:05:07.612Z,97369.34
2023-09-08T07:07:37.066Z,97369.34
2023-09-08T07:10:03.803Z,97371.59
2023-09-08T07:12:32.905Z,97375.19
2023-09-08T07:14:59.346Z,97375.19
2023-09-08T07:20:16.064Z,97366.41
2023-09-08T07:22:49.767Z,97372.22
2023-09-08T07:27:56.580Z,97376.09
2023-09-08T07:30:23.402Z,97378.84
2023-09-08T07:32:53.450Z,97373.31
2023-09-08T07:35:19.967Z,97373.31
2023-09-08T07:37:46.609Z,97374.13
2023-09-08T07:40:13.139Z,97378.53
2023-09-08T07:45:20.065Z,97377.19
2023-09-08T07:47:46.606Z,97381.06
2023-09-08T07:50:13.143Z,97372.81
2023-09-08T07:52:44.785Z,97383.00
2023-09-08T07:55:11.375Z,97375.09
2023-09-08T07:57:37.852Z,97379.53
2023-09-08T08:00:04.372Z,97384.22
2023-09-08T08:02:30.887Z,97383.41
2023-09-08T08:04:59.264Z,97376.50
2023-09-08T08:10:06.182Z,97374.56
2023-09-08T08:12:32.737Z,97370.66
2023-09-08T08:15:01.410Z,97371.16
2023-09-08T08:17:27.975Z,97371.81
2023-09-08T08:19:54.524Z,97365.31
2023-09-08T08:22:21.103Z,97367.63
2023-09-08T08:24:47.730Z,97374.00
2023-09-08T08:27:15.835Z,97377.03
2023-09-08T08:29:42.463Z,97378.94
2023-09-08T08:32:08.915Z,97377.81
2023-09-08T08:34:35.440Z,97378.56
2023-09-08T08:37:01.917Z,97371.13
2023-09-08T08:39:28.500Z,97369.69
2023-09-08T08:41:55.076Z,97369.13
2023-09-08T08:44:21.999Z,97369.94
2023-09-08T08:46:49.163Z,97365.03
2023-09-08T08:49:16.787Z,97362.28
2023-09-08T08:51:43.373Z,97370.28
2023-09-08T08:54:12.716Z,97359.84
2023-09-08T08:56:39.250Z,97360.94
2023-09-08T08:59:05.782Z,97362.88
2023-09-08T09:01:32.418Z,97357.88
2023-09-08T09:03:59.055Z,97356.53
2023-09-08T09:06:25.615Z,97346.56
2023-09-08T09:08:52.112Z,97345.97
2023-09-08T09:11:18.703Z,97341.81
2023-09-08T09:13:45.215Z,97343.78
2023-09-08T09:16:11.979Z,97339.38
2023-09-08T09:18:38.773Z,97349.78
2023-09-08T09:21:05.439Z,97337.72
2023-09-08T09:23:31.989Z,97346.53
2023-09-08T09:25:58.775Z,97335.22
2023-09-08T09:28:25.417Z,97343.59
2023-09-08T09:30:52.154Z,97351.28
2023-09-08T09:33:19.552Z,97350.78
2023-09-08T09:35:46.089Z,97345.25
2023-09-08T09:38:12.580Z,97351.41
2023-09-08T09:40:39.177Z,97343.44
2023-09-08T09:43:05.775Z,97348.41
2023-09-08T09:45:32.424Z,97350.28
2023-09-08T09:48:01.737Z,97341.97
2023-09-08T09:50:28.298Z,97346.06
2023-09-08T09:52:54.923Z,97346.06
2023-09-08T09:55:21.488Z,97344.66
2023-09-08T09:57:48.126Z,97345.38
2023-09-08T10:00:14.625Z,97336.63
2023-09-08T10:02:41.186Z,97341.53
2023-09-08T10:05:07.812Z,97331.38
2023-09-08T10:07:34.385Z,97328.88
2023-09-08T10:10:00.969Z,97332.16
2023-09-08T10:12:27.622Z,97326.97
2023-09-08T10:14:54.295Z,97325.91
2023-09-08T10:17:20.844Z,97330.59
2023-09-08T10:19:48.901Z,97328.38
2023-09-08T10:22:18.683Z,97326.13
2023-09-08T10:24:45.263Z,97332.38
2023-09-08T10:27:11.928Z,97325.78
2023-09-08T10:29:38.426Z,97326.97
2023-09-08T10:32:05.085Z,97316.16
2023-09-08T10:34:33.038Z,97318.28
2023-09-08T10:36:59.718Z,97314.47
2023-09-08T10:39:26.267Z,97307.25
2023-09-08T10:41:52.843Z,97304.69
2023-09-08T10:44:19.525Z,97300.25
2023-09-08T10:46:46.205Z,97300.50
2023-09-08T10:49:14.948Z,97296.44
2023-09-08T10:51:41.466Z,97298.38
2023-09-08T10:54:15.243Z,97292.13
2023-09-08T10:56:42.267Z,97300.38
2023-09-08T10:59:11.431Z,97300.84
2023-09-08T11:01:37.955Z,97299.78
2023-09-08T11:04:04.770Z,97300.38
2023-09-08T11:09:13.913Z,97297.31
2023-09-08T11:11:40.361Z,97288.34
2023-09-08T11:14:09.553Z,97292.03
2023-09-08T11:16:36.127Z,97287.91
2023-09-08T11:19:02.645Z,97290.66
2023-09-08T11:21:29.153Z,97293.22
2023-09-08T11:23:55.800Z,97285.06
2023-09-08T11:26:22.974Z,97287.50
2023-09-08T11:28:49.581Z,97290.16
2023-09-08T11:31:16.188Z,97290.78
2023-09-08T11:33:47.588Z,97298.22
2023-09-08T11:36:14.154Z,97291.50
2023-09-08T11:38:40.709Z,97295.53
2023-09-08T11:41:07.183Z,97289.88
2023-09-08T11:43:35.988Z,97299.28
2023-09-08T11:46:02.714Z,97302.22
2023-09-08T11:48:29.318Z,97298.25
2023-09-08T11:50:55.873Z,97286.66
2023-09-08T11:53:22.594Z,97290.06
2023-09-08T11:58:32.446Z,97280.53
2023-09-08T12:01:03.358Z,97272.59
2023-09-08T12:03:29.967Z,97272.84
2023-09-08T12:05:56.589Z,97270.09
2023-09-08T12:08:23.369Z,97273.44
2023-09-08T12:10:54.829Z,97269.91
2023-09-08T12:13:21.360Z,97263.72
2023-09-08T12:15:47.953Z,97255.28
2023-09-08T12:18:14.526Z,97252.47
2023-09-08T12:20:41.206Z,97260.56
2023-09-08T12:23:07.836Z,97250.56
2023-09-08T12:25:36.133Z,97250.03
2023-09-08T12:28:04.192Z,97244.22
2023-09-08T12:30:30.812Z,97243.16
2023-09-08T12:32:59.758Z,97237.13
2023-09-08T12:35:26.575Z,97248.06
2023-09-08T12:37:53.025Z,97239.78
2023-09-08T12:40:25.579Z,97235.63
2023-09-08T12:42:54.013Z,97228.84
2023-09-08T12:45:24.840Z,97224.72
2023-09-08T12:47:51.280Z,97223.81
2023-09-08T12:50:17.891Z,97217.84
2023-09-08T12:52:47.184Z,97226.81
2023-09-08T12:55:13.687Z,97218.06
2023-09-08T12:57:42.151Z,97213.47
2023-09-08T13:02:49.042Z,97204.16
2023-09-08T13:08:13.970Z,97199.75
2023-09-08T13:10:43.584Z,97195.34
2023-09-08T13:13:10.234Z,97195.34
2023-09-08T13:15:36.901Z,97193.22
2023-09-08T13:18:03.521Z,97190.97
2023-09-08T13:20:30.126Z,97185.66
2023-09-08T13:22:56.716Z,97186.78
2023-09-08T13:25:25.289Z,97182.69
2023-09-08T13:27:52.240Z,97184.00
2023-09-08T13:33:09.424Z,97176.44
2023-09-08T13:35:36.900Z,97171.53
2023-09-08T13:38:03.421Z,97167.16
2023-09-08T13:40:29.966Z,97160.44
2023-09-08T13:42:56.516Z,97162.03
2023-09-08T13:45:23.106Z,97164.00
2023-09-08T13:47:57.330Z,97158.25
2023-09-08T13:50:24.485Z,97153.56
2023-09-08T13:52:55.678Z,97157.34
2023-09-08T13:55:34.753Z,97154.81
2023-09-08T13:58:04.165Z,97148.78
2023-09-08T14:00:33.122Z,97147.84
2023-09-08T14:03:01.476Z,97147.75
2023-09-08T14:05:36.678Z,97142.78
2023-09-08T14:08:08.480Z,97146.56
2023-09-08T14:10:52.016Z,97144.69
2023-09-08T14:13:20.852Z,97141.84
2023-09-08T14:15:47.303Z,97145.84
2023-09-08T14:18:13.778Z,97138.56
2023-09-08T14:23:20.669Z,97131.72
2023-09-08T14:25:48.390Z,97121.91
2023-09-08T14:28:14.824Z,97131.13
2023-09-08T14:30:47.486Z,97131.63
2023-09-08T14:33:16.099Z,97124.88
2023-09-08T14:35:56.141Z,97129.38
2023-09-08T14:38:22.652Z,97121.91
2023-09-08T14:40:50.031Z,97125.47
2023-09-08T14:43:16.639Z,97121.38
2023-09-08T14:45:43.177Z,97115.16
2023-09-08T14:48:09.820Z,97119.38
2023-09-08T14:50:36.447Z,97116.53
2023-09-08T14:53:03.083Z,97118.97
2023-09-08T14:55:29.760Z,97109.88
2023-09-08T14:57:56.283Z,97108.66
2023-09-08T15:00:22.875Z,97118.25
2023-09-08T15:02:49.728Z,97115.28
2023-09-08T15:05:16.294Z,97111.91
2023-09-08T15:07:45.883Z,97115.22
2023-09-08T15:10:13.420Z,97106.66
2023-09-08T15:12:40.000Z,97111.53
2023-09-08T15:15:06.607Z,97112.69
2023-09-08T15:17:33.234Z,97108.75
2023-09-08T15:20:02.522Z,97106.47
2023-09-08T15:22:29.158Z,97114.56
2023-09-08T15:24:55.721Z,97107.94
2023-09-08T15:27:22.434Z,97105.34
2023-09-08T15:29:48.980Z,97103.56
2023-09-08T15:32:15.614Z,97095.22
2023-09-08T15:34:44.777Z,97106.84
2023-09-08T15:37:11.349Z,97098.84
2023-09-08T15:39:37.946Z,97095.81
2023-09-08T15:42:04.507Z,97096.13
2023-09-08T15:44:31.029Z,97100.41
2023-09-08T15:49:37.872Z,97098.88
2023-09-08T15:52:15.682Z,97097.88
2023-09-08T15:54:43.261Z,97093.94
2023-09-08T15:57:09.906Z,97088.09
2023-09-08T15:59:36.443Z,97086.78
2023-09-08T16:02:03.049Z,97087.28
2023-09-08T16:04:29.788Z,97081.31
2023-09-08T16:06:56.583Z,97086.84
2023-09-08T16:09:23.131Z,97085.50
2023-09-08T16:11:49.665Z,97090.78
2023-09-08T16:14:16.267Z,97090.84
2023-09-08T16:16:42.982Z,97088.44
2023-09-08T16:19:15.163Z,97084.91
2023-09-08T16:21:41.702Z,97083.97
2023-09-08T16:24:08.395Z,97083.94
2023-09-08T16:26:35.066Z,97094.66
2023-09-08T16:29:01.667Z,97083.25
2023-09-08T16:31:28.226Z,97082.41
2023-09-08T16:33:54.800Z,97078.69
2023-09-08T16:36:21.304Z,97086.34
2023-09-08T16:38:57.068Z,97077.03
2023-09-08T16:41:23.588Z,97070.69
2023-09-08T16:43:50.141Z,97074.56
2023-09-08T16:46:16.640Z,97069.00
2023-09-08T16:48:43.407Z,97071.78
2023-09-08T16:51:12.572Z,97069.00
2023-09-08T16:53:39.197Z,97069.19
2023-09-08T16:56:05.769Z,97074.09
2023-09-08T16:58:32.326Z,97077.88
2023-09-08T17:00:58.872Z,97073.47
2023-09-08T17:03:25.475Z,97074.09
2023-09-08T17:05:53.127Z,97084.03
2023-09-08T17:08:19.609Z,97078.50
2023-09-08T17:10:47.679Z,97082.28
2023-09-08T17:13:14.216Z,97076.09
2023-09-08T17:15:40.962Z,97081.66
2023-09-08T17:18:07.873Z,97081.47
2023-09-08T17:20:34.593Z,97075.13
2023-09-08T17:23:01.243Z,97073.66
2023-09-08T17:25:27.777Z,97089.28
2023-09-08T17:28:06.904Z,97083.91
2023-09-08T17:30:33.709Z,97081.47
2023-09-08T17:33:01.520Z,97081.00
2023-09-08T17:35:28.052Z,97081.31
2023-09-08T17:37:56.615Z,97079.69
2023-09-08T17:40:23.143Z,97080.50
2023-09-08T17:42:49.735Z,97084.75
2023-09-08T17:45:16.258Z,97086.31
2023-09-08T17:47:45.231Z,97086.19
2023-09-08T17:50:11.889Z,97091.88
2023-09-08T17:52:38.385Z,97090.06
2023-09-08T17:55:04.900Z,97089.91
2023-09-08T17:57:34.520Z,97087.78
2023-09-08T18:00:01.090Z,97095.44
2023-09-08T18:02:27.842Z,97089.22
2023-09-08T18:04:54.489Z,97091.53
2023-09-08T18:07:21.152Z,97095.75
2023-09-08T18:09:47.879Z,97098.66
2023-09-08T18:12:14.457Z,97094.59
2023-09-08T18:14:40.982Z,97093.94
2023-09-08T18:17:07.579Z,97090.00
2023-09-08T18:19:34.196Z,97099.75
2023-09-08T18:22:00.827Z,97096.47
2023-09-08T18:24:27.315Z,97103.78
2023-09-08T18:26:53.855Z,97109.50
2023-09-08T18:29:20.416Z,97111.59
2023-09-08T18:32:00.589Z,97111.88
2023-09-08T18:34:27.081Z,97114.03
2023-09-08T18:37:01.531Z,97117.28
2023-09-08T18:39:28.120Z,97122.00
2023-09-08T18:41:54.652Z,97125.91
2023-09-08T18:44:21.176Z,97125.56
2023-09-08T18:46:47.919Z,97130.78
2023-09-08T18:49:14.406Z,97126.91
2023-09-08T18:51:41.948Z,97123.94
2023-09-08T18:54:08.412Z,97127.19
2023-09-08T18:56:34.908Z,97130.88
2023-09-08T18:59:02.083Z,97130.41
2023-09-08T19:01:29.277Z,97134.94
2023-09-08T19:03:55.795Z,97130.72
2023-09-08T19:06:22.624Z,97131.22
2023-09-08T19:08:49.288Z,97133.97
2023-09-08T19:11:15.809Z,97138.34
2023-09-08T19:13:42.474Z,97141.94
2023-09-08T19:16:09.041Z,97143.88
2023-09-08T19:18:35.590Z,97144.53
2023-09-08T19:21:02.087Z,97132.94
2023-09-08T19:23:28.595Z,97140.13
2023-09-08T19:25:56.935Z,97143.53
2023-09-08T19:28:23.352Z,97141.09
2023-09-08T19:30:49.983Z,97134.72
2023-09-08T19:33:17.752Z,97142.53
2023-09-08T19:35:46.292Z,97139.59
2023-09-08T19:38:12.782Z,97146.56
2023-09-08T19:40:39.274Z,97134.69
2023-09-08T19:43:05.765Z,97141.69
2023-09-08T19:45:32.185Z,97134.00
2023-09-08T19:47:58.699Z,97137.69
2023-09-08T19:50:25.191Z,97135.88
2023-09-08T19:52:51.753Z,97134.06
2023-09-08T19:55:29.359Z,97139.09
2023-09-08T19:57:55.889Z,97142.06
2023-09-08T20:00:22.422Z,97133.88
2023-09-08T20:02:51.629Z,97131.13
2023-09-08T20:05:20.127Z,97139.41
2023-09-08T20:07:46.584Z,97133.50
2023-09-08T20:10:13.103Z,97142.59
2023-09-08T20:12:39.653Z,97151.22
2023-09-08T20:15:06.167Z,97150.91
2023-09-08T20:17:32.757Z,97151.41
2023-09-08T20:19:59.276Z,97147.53
2023-09-08T20:22:25.736Z,97157.13
2023-09-08T20:24:52.184Z,97149.97
2023-09-08T20:27:18.822Z,97154.03
2023-09-08T20:32:27.038Z,97138.97
2023-09-08T20:34:53.602Z,97140.59
2023-09-08T20:37:20.978Z,97137.84
2023-09-08T20:39:47.530Z,97141.41
2023-09-08T20:42:17.157Z,97139.78
2023-09-08T20:44:43.709Z,97133.94
2023-09-08T20:47:10.334Z,97137.53
2023-09-08T20:49:39.625Z,97144.19
2023-09-08T20:52:06.167Z,97134.25
2023-09-08T20:54:32.714Z,97139.78
2023-09-08T20:56:59.182Z,97136.53
2023-09-08T20:59:28.289Z,97138.09
2023-09-08T21:01:56.205Z,97152.53
2023-09-08T21:04:24.267Z,97145.69
2023-09-08T21:06:52.763Z,97146.97
2023-09-08T21:09:27.560Z,97146.66
2023-09-08T21:11:54.109Z,97142.25
2023-09-08T21:14:22.766Z,97147.28
2023-09-08T21:16:49.430Z,97153.59
2023-09-08T21:19:15.980Z,97153.59
2023-09-08T21:21:42.538Z,97156.53
2023-09-08T21:24:09.077Z,97146.91
2023-09-08T21:26:43.492Z,97152.75
2023-09-08T21:29:10.130Z,97141.19
2023-09-08T21:31:36.742Z,97145.59
2023-09-08T21:34:04.292Z,97145.09
2023-09-08T21:36:30.860Z,97145.22
2023-09-08T21:38:58.635Z,97141.44
2023-09-08T21:41:32.842Z,97139.19
2023-09-08T21:43:59.459Z,97148.72
2023-09-08T21:46:27.233Z,97144.03
2023-09-08T21:48:53.789Z,97153.13
2023-09-08T21:51:20.358Z,97145.47
2023-09-08T21:53:46.995Z,97141.03
2023-09-08T21:56:13.461Z,97146.56
2023-09-08T21:58:45.009Z,97145.75
2023-09-08T22:01:18.789Z,97141.66
2023-09-08T22:03:46.044Z,97139.22
2023-09-08T22:09:03.480Z,97141.91
2023-09-08T22:11:30.109Z,97139.25
2023-09-08T22:13:56.724Z,97136.00
2023-09-08T22:16:23.381Z,97133.25
2023-09-08T22:18:49.990Z,97134.69
2023-09-08T22:21:18.649Z,97137.84
2023-09-08T22:23:45.218Z,97142.56
2023-09-08T22:26:11.749Z,97145.03
2023-09-08T22:28:40.794Z,97149.28
2023-09-08T22:31:07.404Z,97149.81
2023-09-08T22:33:34.307Z,97149.97
2023-09-08T22:36:01.101Z,97143.34
2023-09-08T22:38:27.691Z,97144.97
2023-09-08T22:40:54.214Z,97147.75
2023-09-08T22:43:20.696Z,97152.94
2023-09-08T22:45:47.435Z,97150.50
2023-09-08T22:48:14.071Z,97154.88
2023-09-08T22:53:21.006Z,97154.38
2023-09-08T22:55:47.612Z,97146.72
2023-09-08T22:58:14.290Z,97150.72
2023-09-08T23:00:40.952Z,97153.78
2023-09-08T23:03:07.649Z,97154.25
2023-09-08T23:05:34.386Z,97152.59
2023-09-08T23:08:00.882Z,97154.25
2023-09-08T23:10:30.882Z,97160.88
2023-09-08T23:12:57.309Z,97161.19
2023-09-08T23:15:23.780Z,97158.94
2023-09-08T23:17:50.394Z,97162.53
2023-09-08T23:20:17.068Z,97168.34
2023-09-08T23:22:43.617Z,97173.66
2023-09-08T23:25:10.169Z,97170.09
2023-09-08T23:27:36.741Z,97177.53
2023-09-08T23:30:03.255Z,97175.22
2023-09-08T23:32:29.832Z,97171.25
2023-09-08T23:34:56.429Z,97169.81
2023-09-08T23:37:22.840Z,97175.94
2023-09-08T23:39:51.418Z,97178.00
2023-09-08T23:42:33.254Z,97169.28
2023-09-08T23:44:59.686Z,97164.09
2023-09-08T23:47:26.361Z,97163.78
2023-09-08T23:49:52.970Z,97168.66
2023-09-08T23:52:19.397Z,97161.00
2023-09-08T23:54:45.858Z,97167.97
2023-09-08T23:57:12.425Z,97164.72
2023-09-08T23:59:38.924Z,97169.38
